Time;durP1;ratioP1;P1;durP2;ratioP2;P2;SDS_P1;SDS_P2;PMS_P1;PMS_P2;Temp;Humidity;BMP_temperature;BMP_pressure;BME280_temperature;BME280_humidity;BME280_pressure;Samples;Min_cycle;Max_cycle;Signal;HPM_P1;HPM_P2
2022/03/31 00:00:39;;;;;;;7.22;5.38;;;;;;;11.33;43.11;100028.06;5073617;28;20048;-62
2022/03/31 00:03:08;;;;;;;6.72;4.78;;;;;;;11.28;43.10;100033.84;5071988;28;20032;-63
2022/03/31 00:05:36;;;;;;;6.70;5.20;;;;;;;11.26;43.12;100029.56;5073075;28;20040;-63
2022/03/31 00:08:09;;;;;;;5.70;5.10;;;;;;;11.24;43.26;100028.88;5072166;28;20111;-63
2022/03/31 00:10:39;;;;;;;7.78;5.40;;;;;;;11.23;43.41;100022.63;5073193;28;20040;-63
2022/03/31 00:13:09;;;;;;;7.82;5.63;;;;;;;11.23;43.29;100013.72;5073086;28;20043;-63
2022/03/31 00:15:35;;;;;;;6.03;5.00;;;;;;;11.23;43.18;100014.56;5073318;28;20090;-63
2022/03/31 00:18:04;;;;;;;5.90;5.22;;;;;;;11.21;43.57;100013.84;5072977;28;20486;-62
2022/03/31 00:24:13;;;;;;;6.50;5.35;;;;;;;11.10;43.45;100020.13;5068840;28;20062;-64
2022/03/31 00:26:41;;;;;;;7.30;5.90;;;;;;;11.07;43.69;100016.84;5073128;28;20429;-63
2022/03/31 00:29:08;;;;;;;7.13;5.78;;;;;;;11.05;43.67;100018.81;5072912;28;20075;-63
2022/03/31 00:31:35;;;;;;;9.50;6.03;;;;;;;11.04;43.81;100022.50;5073026;28;20040;-62
2022/03/31 00:34:02;;;;;;;8.57;5.95;;;;;;;11.02;43.89;100016.41;5071389;28;20383;-63
2022/03/31 00:36:29;;;;;;;9.70;6.18;;;;;;;10.99;44.04;100013.97;5072897;28;20043;-63
2022/03/31 00:41:40;;;;;;;8.82;6.57;;;;;;;10.96;44.05;100016.94;5073239;28;20064;-62
2022/03/31 00:44:07;;;;;;;8.52;6.50;;;;;;;10.96;44.05;100008.88;5071675;28;20045;-62
2022/03/31 00:46:34;;;;;;;9.43;6.97;;;;;;;10.95;44.31;100004.47;5072955;28;20437;-63
2022/03/31 00:49:01;;;;;;;9.57;7.30;;;;;;;10.93;44.25;99999.25;5072732;28;20505;-63
2022/03/31 00:51:29;;;;;;;9.15;7.32;;;;;;;10.94;44.31;100002.78;5072802;28;20446;-63
2022/03/31 00:53:57;;;;;;;9.85;7.55;;;;;;;10.92;44.36;100002.91;5072934;28;20098;-63
2022/03/31 00:56:25;;;;;;;11.25;7.90;;;;;;;10.92;44.50;99996.69;5054973;28;20072;-63
2022/03/31 00:58:53;;;;;;;10.43;7.70;;;;;;;10.91;44.57;100001.19;5072608;28;20087;-63
2022/03/31 01:01:21;;;;;;;12.07;8.65;;;;;;;10.88;44.60;100001.47;5073390;28;20047;-63
2022/03/31 01:03:48;;;;;;;11.88;8.82;;;;;;;10.86;44.71;99998.06;5062128;28;20084;-64
2022/03/31 01:06:16;;;;;;;11.77;8.65;;;;;;;10.84;44.71;99994.66;5072677;28;20064;-63
2022/03/31 01:08:43;;;;;;;11.82;9.35;;;;;;;10.81;44.76;99990.41;5072522;28;20037;-63
2022/03/31 01:11:11;;;;;;;14.80;10.65;;;;;;;10.81;44.75;99997.59;5072781;28;20090;-63
2022/03/31 01:13:38;;;;;;;13.43;9.73;;;;;;;10.78;44.84;99990.66;5072793;28;20051;-62
2022/03/31 01:16:05;;;;;;;15.50;10.45;;;;;;;10.75;44.99;99982.00;5076419;28;20048;-63
2022/03/31 01:18:31;;;;;;;15.20;11.18;;;;;;;10.73;44.95;99983.97;5056597;28;20049;-63
2022/03/31 01:20:58;;;;;;;15.82;11.13;;;;;;;10.67;45.07;99979.97;5059706;28;20033;-62
2022/03/31 01:23:27;;;;;;;16.83;11.52;;;;;;;10.63;45.13;99966.94;5069570;28;20052;-63
2022/03/31 01:25:53;;;;;;;14.85;11.20;;;;;;;10.60;45.20;99976.13;5076425;28;20498;-63
2022/03/31 01:28:20;;;;;;;17.17;11.43;;;;;;;10.56;45.24;99961.25;5041614;28;20043;-63
2022/03/31 01:30:47;;;;;;;17.60;11.77;;;;;;;10.55;45.27;99974.81;5076193;28;20036;-62
2022/03/31 01:33:14;;;;;;;14.82;10.63;;;;;;;10.53;45.29;99971.41;5076236;28;20102;-62
2022/03/31 01:35:41;;;;;;;14.48;11.02;;;;;;;10.52;45.37;99970.56;5076259;28;20040;-62
2022/03/31 01:38:07;;;;;;;17.58;11.55;;;;;;;10.52;45.41;99975.91;5075556;28;20045;-63
2022/03/31 01:40:35;;;;;;;15.48;10.80;;;;;;;10.50;45.40;99970.69;5075856;28;20045;-63
2022/03/31 01:43:02;;;;;;;13.48;9.88;;;;;;;10.49;45.43;99976.19;5075465;28;20063;-63
2022/03/31 01:45:28;;;;;;;12.23;9.88;;;;;;;10.48;45.54;99980.69;5075910;28;20041;-62
2022/03/31 01:48:01;;;;;;;13.48;9.85;;;;;;;10.47;45.49;99984.34;5075680;28;20407;-63
2022/03/31 01:50:28;;;;;;;12.45;9.68;;;;;;;10.47;45.52;99983.50;5075893;28;20075;-62
2022/03/31 01:52:55;;;;;;;11.68;9.23;;;;;;;10.45;45.68;99977.41;5075473;28;20060;-63
2022/03/31 01:55:21;;;;;;;11.43;8.18;;;;;;;10.43;45.71;99982.91;5075580;28;20045;-62
2022/03/31 01:57:48;;;;;;;12.50;8.63;;;;;;;10.43;45.78;99979.38;5075193;28;20041;-62
2022/03/31 02:00:15;;;;;;;9.48;7.47;;;;;;;10.41;45.71;99981.34;5075839;28;20044;-62
2022/03/31 02:02:43;;;;;;;11.13;7.72;;;;;;;10.41;45.86;99978.66;5075878;28;20041;-62
2022/03/31 02:05:11;;;;;;;11.43;8.00;;;;;;;10.40;45.89;99971.56;5076336;28;20440;-62
2022/03/31 02:07:38;;;;;;;10.20;7.35;;;;;;;10.40;45.98;99968.88;5075159;28;20055;-62
2022/03/31 02:10:09;;;;;;;11.07;8.18;;;;;;;10.41;46.22;99973.28;5075521;28;20110;-63
2022/03/31 02:12:36;;;;;;;11.63;7.97;;;;;;;10.38;46.15;99966.31;5075364;28;20543;-62
2022/03/31 02:15:03;;;;;;;11.32;8.25;;;;;;;10.34;46.27;99964.88;5075242;28;20059;-63
2022/03/31 02:17:31;;;;;;;11.82;8.65;;;;;;;10.31;46.39;99958.91;5074988;28;20090;-62
2022/03/31 02:19:57;;;;;;;10.27;8.45;;;;;;;10.28;46.29;99965.38;5075235;28;20040;-62
2022/03/31 02:22:24;;;;;;;11.10;8.15;;;;;;;10.27;46.50;99957.47;5075291;28;20079;-63
2022/03/31 02:24:51;;;;;;;12.43;8.93;;;;;;;10.24;46.45;99960.41;5074695;28;20048;-62
2022/03/31 02:27:19;;;;;;;11.55;8.32;;;;;;;10.20;46.68;99957.13;5073434;28;20117;-63
2022/03/31 02:29:46;;;;;;;12.70;9.38;;;;;;;10.16;46.75;99961.88;5074670;28;20553;-62
2022/03/31 02:32:12;;;;;;;10.82;8.85;;;;;;;10.12;46.87;99957.72;5075299;28;20055;-63
2022/03/31 02:34:39;;;;;;;12.52;8.85;;;;;;;10.10;47.00;99953.47;5075706;28;20405;-62
2022/03/31 02:37:05;;;;;;;11.13;8.95;;;;;;;10.10;47.05;99951.66;5075148;28;20083;-63
2022/03/31 02:39:32;;;;;;;13.30;9.60;;;;;;;10.10;47.10;99950.78;5074729;28;20371;-62
2022/03/31 02:42:00;;;;;;;12.07;9.40;;;;;;;10.09;47.20;99947.25;5074492;28;20068;-62
2022/03/31 02:44:27;;;;;;;12.50;9.13;;;;;;;10.07;47.25;99940.31;5057020;28;20040;-62
2022/03/31 02:46:53;;;;;;;13.80;9.40;;;;;;;10.04;47.37;99940.56;5074669;28;20047;-62
2022/03/31 02:49:20;;;;;;;12.68;9.13;;;;;;;10.02;47.47;99934.50;5056969;28;20028;-62
2022/03/31 02:51:47;;;;;;;12.25;9.20;;;;;;;9.98;47.61;99935.72;5074406;28;20060;-63
2022/03/31 02:56:59;;;;;;;14.48;9.55;;;;;;;9.93;47.86;99937.94;5054705;28;20121;-62
2022/03/31 02:59:25;;;;;;;14.35;9.10;;;;;;;9.92;47.84;99942.44;5054463;28;20372;-62
2022/03/31 03:01:52;;;;;;;12.80;9.52;;;;;;;9.91;48.01;99935.38;5074535;28;20136;-63
2022/03/31 03:04:19;;;;;;;12.75;10.07;;;;;;;9.87;48.24;99934.78;5074882;28;20045;-63
2022/03/31 03:06:45;;;;;;;14.10;9.70;;;;;;;9.85;48.28;99933.19;5074670;28;20059;-63
2022/03/31 03:09:11;;;;;;;14.00;10.30;;;;;;;9.84;48.31;99934.19;5073890;28;20044;-62
2022/03/31 03:11:38;;;;;;;15.27;10.80;;;;;;;9.85;48.23;99934.06;5074151;28;20119;-63
2022/03/31 03:14:05;;;;;;;12.50;9.57;;;;;;;9.84;48.41;99927.00;5074324;28;20098;-62
2022/03/31 03:16:31;;;;;;;13.55;9.95;;;;;;;9.84;48.41;99928.81;5074229;28;20141;-62
2022/03/31 03:18:59;;;;;;;14.70;10.35;;;;;;;9.85;48.52;99927.84;5074290;28;20060;-62
2022/03/31 03:21:26;;;;;;;13.57;10.13;;;;;;;9.87;48.50;99931.25;5074107;28;20040;-63
2022/03/31 03:23:53;;;;;;;14.65;9.93;;;;;;;9.87;48.62;99921.38;5074248;28;20184;-62
2022/03/31 03:26:21;;;;;;;13.95;9.93;;;;;;;9.91;48.50;99923.81;5073776;28;20070;-62
2022/03/31 03:28:48;;;;;;;14.63;9.60;;;;;;;9.90;48.71;99922.94;5073832;28;20071;-62
2022/03/31 03:31:14;;;;;;;13.60;9.88;;;;;;;9.88;48.82;99924.91;5074162;28;20490;-62
2022/03/31 03:33:41;;;;;;;13.23;9.75;;;;;;;9.87;48.91;99909.78;5074030;28;20048;-63
2022/03/31 03:36:10;;;;;;;11.68;9.80;;;;;;;9.86;48.67;99913.44;5073776;28;20058;-62
2022/03/31 03:38:40;;;;;;;14.70;10.07;;;;;;;9.83;48.97;99903.84;5072843;28;20045;-63
2022/03/31 03:41:10;;;;;;;12.73;9.45;;;;;;;9.82;49.06;99901.28;5073571;28;20048;-62
2022/03/31 03:43:38;;;;;;;15.15;11.48;;;;;;;9.81;49.14;99910.31;5056145;28;20048;-62
2022/03/31 03:46:05;;;;;;;15.15;9.55;;;;;;;9.80;49.06;99905.91;5073494;28;20044;-62
2022/03/31 03:48:32;;;;;;;15.65;9.85;;;;;;;9.74;49.24;99901.91;5073413;28;20040;-62
2022/03/31 03:50:59;;;;;;;14.88;9.93;;;;;;;9.71;49.24;99891.44;5073390;28;20045;-63
2022/03/31 03:53:26;;;;;;;14.27;9.95;;;;;;;9.71;49.28;99894.13;5073723;28;20048;-62
2022/03/31 03:55:53;;;;;;;12.70;9.45;;;;;;;9.74;49.39;99893.03;5073674;28;20037;-63
2022/03/31 03:58:19;;;;;;;15.45;10.05;;;;;;;9.74;49.51;99898.38;5073446;28;20127;-62
2022/03/31 04:00:46;;;;;;;15.05;9.93;;;;;;;9.68;49.63;99889.00;5073693;28;20397;-62
2022/03/31 04:03:13;;;;;;;14.93;10.45;;;;;;;9.64;49.54;99884.84;5073484;28;20040;-62
2022/03/31 04:05:39;;;;;;;13.57;9.50;;;;;;;9.64;49.59;99884.00;5073560;28;20400;-62
2022/03/31 04:08:07;;;;;;;13.43;10.07;;;;;;;9.62;49.74;99877.91;5073140;28;20127;-62
2022/03/31 04:10:34;;;;;;;13.50;10.13;;;;;;;9.62;49.78;99889.50;5073431;28;20052;-62
2022/03/31 04:13:01;;;;;;;15.73;10.20;;;;;;;9.61;49.95;99884.25;5055643;28;20068;-62
2022/03/31 04:15:27;;;;;;;18.02;10.30;;;;;;;9.61;49.88;99889.63;5073273;28;20083;-62
2022/03/31 04:17:54;;;;;;;12.68;9.10;;;;;;;9.62;49.89;99892.16;5073167;28;20040;-63
2022/03/31 04:20:21;;;;;;;12.95;9.45;;;;;;;9.65;49.93;99899.97;5073312;28;20399;-63
2022/03/31 04:22:47;;;;;;;14.45;10.02;;;;;;;9.67;50.00;99895.34;5073428;28;20047;-63
2022/03/31 04:25:14;;;;;;;13.38;9.00;;;;;;;9.68;50.12;99897.06;5073379;28;20490;-62
2022/03/31 04:27:41;;;;;;;10.88;7.60;;;;;;;9.67;50.04;99892.69;5073161;28;20053;-62
2022/03/31 04:30:10;;;;;;;12.75;7.10;;;;;;;9.65;50.07;99899.97;5073231;28;20123;-63
2022/03/31 04:32:38;;;;;;;7.88;6.28;;;;;;;9.63;50.14;99899.22;5055505;28;20131;-63
2022/03/31 04:35:05;;;;;;;8.57;5.93;;;;;;;9.60;50.14;99898.63;5073229;28;20413;-63
2022/03/31 04:37:34;;;;;;;8.40;5.75;;;;;;;9.54;50.17;99898.16;5073171;28;20406;-63
2022/03/31 04:40:02;;;;;;;6.32;5.10;;;;;;;9.50;50.06;99906.56;5073136;28;20444;-62
2022/03/31 04:42:29;;;;;;;9.50;5.50;;;;;;;9.47;50.16;99898.78;5073436;28;20082;-62
2022/03/31 04:44:56;;;;;;;6.22;5.30;;;;;;;9.42;50.16;99895.63;5073135;28;20047;-62
2022/03/31 04:47:23;;;;;;;9.38;5.05;;;;;;;9.36;50.22;99893.44;5072527;28;20036;-62
2022/03/31 04:49:49;;;;;;;7.32;5.50;;;;;;;9.29;50.25;99902.97;5076613;28;20037;-62
2022/03/31 04:52:16;;;;;;;8.25;5.00;;;;;;;9.22;50.22;99910.63;5077041;28;20032;-62
2022/03/31 04:54:45;;;;;;;7.13;4.90;;;;;;;9.18;50.43;99909.19;5076700;28;20040;-62
2022/03/31 04:57:16;;;;;;;6.57;4.63;;;;;;;9.18;50.52;99911.88;5074098;28;20062;-63
2022/03/31 04:59:42;;;;;;;6.32;4.63;;;;;;;9.16;50.52;99911.13;5077190;28;20054;-62
2022/03/31 05:02:10;;;;;;;6.20;4.82;;;;;;;9.15;50.51;99917.47;5077056;28;20041;-63
2022/03/31 05:04:37;;;;;;;5.75;4.93;;;;;;;9.13;50.63;99916.72;5076762;28;20036;-62
2022/03/31 05:07:04;;;;;;;7.22;5.47;;;;;;;9.12;50.69;99912.34;5076823;28;20049;-62
2022/03/31 05:09:31;;;;;;;6.68;4.75;;;;;;;9.09;50.71;99902.75;5076781;28;20044;-62
2022/03/31 05:11:57;;;;;;;8.70;5.28;;;;;;;9.08;50.75;99903.72;5076807;28;20115;-62
2022/03/31 05:14:24;;;;;;;6.93;5.00;;;;;;;9.09;50.80;99902.75;5076883;28;20060;-62
2022/03/31 05:16:51;;;;;;;5.45;4.55;;;;;;;9.09;51.04;99910.78;5076931;28;20466;-62
2022/03/31 05:19:18;;;;;;;6.20;4.63;;;;;;;9.09;50.81;99910.78;5076330;28;20123;-62
2022/03/31 05:21:44;;;;;;;7.18;4.75;;;;;;;9.08;50.88;99911.75;5076821;28;20048;-62
2022/03/31 05:24:11;;;;;;;6.00;4.38;;;;;;;9.08;50.94;99916.25;5076010;28;20041;-63
2022/03/31 05:26:37;;;;;;;6.13;4.70;;;;;;;9.04;50.93;99914.78;5058584;28;20116;-62
2022/03/31 05:29:04;;;;;;;5.40;4.47;;;;;;;9.00;50.93;99910.66;5076424;28;20080;-62
2022/03/31 05:31:31;;;;;;;6.40;4.90;;;;;;;8.94;50.97;99912.00;5076490;28;20067;-63
2022/03/31 05:33:57;;;;;;;8.00;4.63;;;;;;;8.85;51.03;99908.19;5076523;28;20037;-63
2022/03/31 05:36:24;;;;;;;7.22;5.10;;;;;;;8.81;51.11;99908.53;5075786;28;20509;-63
2022/03/31 05:38:50;;;;;;;7.32;4.45;;;;;;;8.76;51.28;99908.06;5075919;28;20029;-64
2022/03/31 05:41:17;;;;;;;5.95;4.70;;;;;;;8.71;51.30;99915.59;5075959;28;20045;-62
2022/03/31 05:43:43;;;;;;;7.18;4.65;;;;;;;8.67;51.35;99912.31;5076218;28;20163;-63
2022/03/31 05:46:39;;;;;;;6.15;4.07;;;;;;;8.67;51.53;99906.09;5078112;28;20068;-62
2022/03/31 05:49:06;;;;;;;6.45;4.22;;;;;;;8.67;51.57;99912.31;5074491;28;20401;-63
2022/03/31 05:51:33;;;;;;;5.55;4.32;;;;;;;8.70;51.61;99912.06;5074624;28;20131;-63
2022/03/31 05:54:01;;;;;;;6.82;4.95;;;;;;;8.69;51.58;99914.88;5075159;28;20064;-63
2022/03/31 05:56:27;;;;;;;6.80;4.90;;;;;;;8.67;51.64;99911.44;5075122;28;20139;-63
2022/03/31 05:58:54;;;;;;;7.18;4.47;;;;;;;8.67;51.76;99908.78;5076028;28;20052;-62
2022/03/31 06:01:20;;;;;;;9.60;4.68;;;;;;;8.66;51.67;99918.63;5076119;28;20440;-62
2022/03/31 06:03:52;;;;;;;7.75;4.47;;;;;;;8.63;51.63;99918.03;5075918;28;20396;-64
2022/03/31 06:06:19;;;;;;;5.28;4.35;;;;;;;8.60;51.90;99921.78;5074592;28;20473;-64
2022/03/31 06:08:45;;;;;;;5.80;4.32;;;;;;;8.55;51.76;99913.25;5074196;28;20125;-64
2022/03/31 06:11:12;;;;;;;6.57;4.70;;;;;;;8.52;51.96;99916.19;5070262;28;20045;-65
2022/03/31 06:13:39;;;;;;;8.77;4.78;;;;;;;8.52;51.82;99930.41;5074688;28;20102;-64
2022/03/31 06:16:05;;;;;;;6.85;4.95;;;;;;;8.52;51.99;99924.19;5075911;28;20040;-65
2022/03/31 06:18:32;;;;;;;7.25;4.68;;;;;;;8.54;52.08;99932.97;5057863;28;20044;-65
2022/03/31 06:20:59;;;;;;;6.03;4.70;;;;;;;8.57;51.98;99930.06;5057422;28;20083;-65
2022/03/31 06:23:26;;;;;;;7.03;5.20;;;;;;;8.59;52.03;99934.31;5057359;28;20444;-64
2022/03/31 06:25:53;;;;;;;6.53;4.97;;;;;;;8.59;52.06;99933.47;5075189;28;20474;-63
2022/03/31 06:28:26;;;;;;;6.18;4.97;;;;;;;8.58;52.24;99935.28;5075145;28;20066;-65
2022/03/31 06:30:52;;;;;;;5.40;4.43;;;;;;;8.55;51.95;99934.66;5075270;28;20048;-66
2022/03/31 06:33:20;;;;;;;4.68;4.28;;;;;;;8.47;52.06;99935.25;5075182;28;20032;-65
2022/03/31 06:35:49;;;;;;;7.32;4.25;;;;;;;8.40;51.89;99930.50;5072455;28;20072;-65
2022/03/31 06:38:15;;;;;;;4.72;4.00;;;;;;;8.33;51.85;99924.75;5056134;28;20490;-65
2022/03/31 06:41:06;;;;;;;4.90;3.85;;;;;;;8.26;51.83;99926.16;5074346;28;20040;-64
2022/03/31 06:43:28;;;;;;;6.85;3.85;;;;;;;8.17;51.89;99925.00;5074857;28;20045;-65
2022/03/31 06:45:55;;;;;;;5.35;3.90;;;;;;;8.09;51.88;99926.56;5075010;28;20044;-65
2022/03/31 06:48:22;;;;;;;4.25;3.67;;;;;;;8.03;52.09;99927.03;5056354;28;20047;-65
2022/03/31 06:50:48;;;;;;;4.82;3.47;;;;;;;7.99;52.06;99926.41;5079799;28;20056;-64
2022/03/31 06:53:15;;;;;;;5.18;3.60;;;;;;;7.96;52.04;99926.63;5057606;28;20111;-64
2022/03/31 06:55:41;;;;;;;5.00;3.72;;;;;;;7.91;52.07;99931.47;5074389;28;20040;-64
2022/03/31 06:58:08;;;;;;;4.00;3.60;;;;;;;7.84;52.10;99933.75;5074536;28;20032;-65
2022/03/31 07:00:35;;;;;;;3.70;3.30;;;;;;;7.81;52.21;99931.31;5074577;28;20063;-65
2022/03/31 07:03:01;;;;;;;5.05;3.88;;;;;;;7.78;52.18;99923.50;5074536;28;20486;-65
2022/03/31 07:05:29;;;;;;;3.67;3.38;;;;;;;7.75;52.14;99929.09;5074482;28;20049;-65
2022/03/31 07:07:55;;;;;;;4.43;3.30;;;;;;;7.72;52.26;99923.97;5074020;28;20055;-65
2022/03/31 07:10:22;;;;;;;3.45;2.90;;;;;;;7.67;52.12;99922.59;5074389;28;20047;-65
2022/03/31 07:12:49;;;;;;;3.55;3.10;;;;;;;7.62;52.18;99926.47;5073365;28;20044;-65
2022/03/31 07:15:19;;;;;;;3.58;3.15;;;;;;;7.54;51.98;99922.66;5074471;28;20140;-66
2022/03/31 07:17:46;;;;;;;3.80;3.20;;;;;;;7.48;51.99;99923.97;5074303;28;20047;-65
2022/03/31 07:20:13;;;;;;;4.53;3.70;;;;;;;7.41;52.03;99928.00;5074106;28;20048;-65
2022/03/31 07:22:50;;;;;;;4.57;3.67;;;;;;;7.37;52.04;99931.88;5056082;28;20055;-65
2022/03/31 07:25:17;;;;;;;3.80;3.28;;;;;;;7.35;51.96;99933.78;5074124;28;20131;-66
2022/03/31 07:27:44;;;;;;;3.92;3.42;;;;;;;7.33;52.07;99935.72;5073860;28;20048;-66
2022/03/31 07:30:13;;;;;;;4.22;3.60;;;;;;;7.32;52.20;99936.69;5074164;28;20040;-66
2022/03/31 07:32:51;;;;;;;4.85;4.00;;;;;;;7.30;52.11;99935.94;5056758;28;20108;-66
2022/03/31 07:35:21;;;;;;;6.35;3.45;;;;;;;7.27;52.04;99926.34;5074201;28;20399;-66
2022/03/31 07:37:49;;;;;;;3.95;3.45;;;;;;;7.24;52.16;99923.88;5073847;28;20059;-66
2022/03/31 07:40:16;;;;;;;5.45;4.13;;;;;;;7.22;52.04;99931.16;5073616;28;20041;-66
2022/03/31 07:42:43;;;;;;;5.38;4.00;;;;;;;7.21;52.26;99925.91;5073946;28;20044;-66
2022/03/31 07:45:11;;;;;;;4.65;4.15;;;;;;;7.21;52.25;99932.13;5056029;28;20051;-66
2022/03/31 07:47:42;;;;;;;4.60;4.07;;;;;;;7.22;52.21;99936.50;5073782;28;20438;-65
2022/03/31 07:50:11;;;;;;;5.93;4.45;;;;;;;7.22;52.26;99933.81;5074093;28;20410;-66
2022/03/31 07:52:38;;;;;;;5.80;4.55;;;;;;;7.21;52.20;99932.13;5073922;28;20079;-65
2022/03/31 07:55:07;;;;;;;7.28;4.90;;;;;;;7.19;52.24;99933.19;5073281;28;20131;-66
2022/03/31 07:57:34;;;;;;;5.60;5.00;;;;;;;7.19;52.35;99933.19;5073550;28;20043;-66
2022/03/31 08:00:01;;;;;;;7.75;5.18;;;;;;;7.14;52.34;99927.31;5073485;28;20041;-66
2022/03/31 08:02:42;;;;;;;7.40;5.53;;;;;;;7.10;52.29;99920.50;5057288;28;20126;-66
2022/03/31 08:05:11;;;;;;;6.57;5.18;;;;;;;7.08;52.41;99922.44;5073628;28;20055;-65
2022/03/31 08:07:38;;;;;;;6.22;5.03;;;;;;;7.07;52.55;99920.72;5073246;28;20272;-66
2022/03/31 08:10:06;;;;;;;6.82;5.18;;;;;;;7.08;52.53;99925.94;5073560;28;20040;-65
2022/03/31 08:12:36;;;;;;;8.90;5.60;;;;;;;7.11;52.65;99930.22;5073259;28;20040;-65
2022/03/31 08:15:04;;;;;;;6.05;4.68;;;;;;;7.11;52.68;99925.72;5055919;28;20047;-66
2022/03/31 08:17:31;;;;;;;7.30;5.13;;;;;;;7.12;52.63;99927.44;5055616;28;20040;-66
2022/03/31 08:19:58;;;;;;;5.03;4.25;;;;;;;7.11;52.78;99932.88;5073820;28;20058;-63
2022/03/31 08:22:26;;;;;;;5.03;3.85;;;;;;;7.09;52.75;99929.47;5072443;28;20405;-67
2022/03/31 08:24:59;;;;;;;5.47;4.38;;;;;;;7.08;52.88;99931.28;5056640;28;20048;-64
2022/03/31 08:27:26;;;;;;;4.75;3.92;;;;;;;7.08;52.80;99933.09;5072858;28;20094;-63
2022/03/31 08:29:52;;;;;;;4.43;3.97;;;;;;;7.09;52.94;99927.66;5073303;28;20401;-64
2022/03/31 08:32:19;;;;;;;4.75;3.53;;;;;;;7.12;53.06;99932.78;5055574;28;20045;-64
2022/03/31 08:34:46;;;;;;;5.38;4.10;;;;;;;7.16;53.08;99936.94;5073358;28;20389;-64
2022/03/31 08:37:14;;;;;;;5.50;4.40;;;;;;;7.20;53.13;99929.56;5073283;28;20440;-64
2022/03/31 08:39:40;;;;;;;6.03;4.15;;;;;;;7.24;53.29;99933.72;5055447;28;20045;-64
2022/03/31 08:42:07;;;;;;;4.53;3.53;;;;;;;7.27;53.33;99930.81;5054404;28;20052;-64
2022/03/31 08:44:36;;;;;;;4.47;3.83;;;;;;;7.30;53.20;99933.28;5073172;28;20044;-64
2022/03/31 08:47:02;;;;;;;4.25;3.85;;;;;;;7.32;53.17;99934.00;5072660;28;20044;-61
2022/03/31 08:49:30;;;;;;;4.18;3.75;;;;;;;7.34;53.28;99927.59;5072937;28;20482;-65
2022/03/31 08:52:03;;;;;;;4.55;3.80;;;;;;;7.36;53.49;99922.16;5073315;28;20132;-65
2022/03/31 08:54:29;;;;;;;4.43;3.88;;;;;;;7.39;53.44;99924.59;5073124;28;20040;-65
2022/03/31 08:56:56;;;;;;;8.02;3.97;;;;;;;7.39;53.51;99919.25;5072812;28;20489;-66
2022/03/31 08:59:43;;;;;;;5.13;4.20;;;;;;;7.43;53.43;99927.91;5072066;28;20071;-66
2022/03/31 09:02:26;;;;;;;4.38;3.47;;;;;;;7.46;53.61;99928.56;5072777;28;20119;-65
2022/03/31 09:05:09;;;;;;;3.90;3.35;;;;;;;7.51;53.64;99933.56;5072843;28;20033;-66
2022/03/31 09:07:59;;;;;;;6.03;3.80;;;;;;;7.52;53.75;99930.78;5055123;28;20063;-66
2022/03/31 09:10:31;;;;;;;4.03;3.53;;;;;;;7.56;53.71;99924.25;5072692;28;20465;-67
2022/03/31 09:12:59;;;;;;;4.90;3.92;;;;;;;7.59;53.71;99933.84;5072550;28;20051;-67
2022/03/31 09:15:31;;;;;;;4.75;4.25;;;;;;;7.61;53.77;99932.78;5072436;28;20080;-67
2022/03/31 09:17:59;;;;;;;4.40;3.42;;;;;;;7.64;53.65;99937.91;5072363;28;20036;-67
2022/03/31 09:20:36;;;;;;;4.60;3.80;;;;;;;7.64;53.47;99935.22;5072555;28;20115;-66
2022/03/31 09:23:03;;;;;;;3.80;3.40;;;;;;;7.62;53.67;99923.78;5054696;28;20123;-67
2022/03/31 09:25:32;;;;;;;4.80;3.85;;;;;;;7.63;53.94;99932.66;5055103;28;20063;-66
2022/03/31 09:28:01;;;;;;;4.45;4.00;;;;;;;7.64;53.79;99927.22;5072264;28;20040;-67
2022/03/31 09:30:27;;;;;;;4.75;3.78;;;;;;;7.68;53.97;99925.16;5072448;28;20040;-65
2022/03/31 09:32:54;;;;;;;4.78;3.85;;;;;;;7.72;54.00;99929.31;5072513;28;20043;-66
2022/03/31 09:35:25;;;;;;;5.28;3.67;;;;;;;7.79;54.19;99940.41;5073517;28;20552;-67
2022/03/31 09:37:54;;;;;;;3.70;3.35;;;;;;;7.84;54.06;99941.78;5075910;28;20067;-66
2022/03/31 09:40:21;;;;;;;4.85;3.55;;;;;;;7.90;54.20;99943.13;5076160;28;20072;-66
2022/03/31 09:42:58;;;;;;;4.50;3.75;;;;;;;7.94;54.46;99940.13;5076010;28;20044;-67
2022/03/31 09:45:38;;;;;;;3.95;3.58;;;;;;;7.98;54.36;99948.75;5066292;28;20032;-66
2022/03/31 09:48:08;;;;;;;3.83;3.42;;;;;;;8.00;54.38;99945.97;5075086;28;20521;-66
2022/03/31 09:50:36;;;;;;;4.13;3.72;;;;;;;8.01;54.30;99937.84;5058539;28;20068;-66
2022/03/31 09:53:03;;;;;;;4.32;3.63;;;;;;;8.02;54.45;99942.22;5075762;28;20096;-66
2022/03/31 09:55:31;;;;;;;3.88;3.47;;;;;;;8.02;54.55;99936.88;5075539;28;20044;-66
2022/03/31 09:57:58;;;;;;;5.88;4.00;;;;;;;8.06;54.33;99934.81;5057267;28;20486;-66
2022/03/31 10:00:25;;;;;;;4.75;3.65;;;;;;;8.10;54.62;99929.13;5075167;28;20047;-67
2022/03/31 10:02:51;;;;;;;4.43;3.35;;;;;;;8.15;54.75;99932.31;5075463;28;20422;-65
2022/03/31 10:05:39;;;;;;;4.13;3.35;;;;;;;8.20;54.71;99935.50;5057736;28;20045;-66
2022/03/31 10:08:12;;;;;;;3.97;3.58;;;;;;;8.26;54.87;99931.53;5075640;28;20037;-65
2022/03/31 10:10:39;;;;;;;5.20;3.80;;;;;;;8.31;54.67;99936.53;5075817;28;20051;-65
2022/03/31 10:13:17;;;;;;;4.35;3.80;;;;;;;8.36;54.84;99932.56;5057561;28;20036;-64
2022/03/31 10:15:45;;;;;;;3.90;3.50;;;;;;;8.40;54.86;99933.19;5057647;28;20045;-66
2022/03/31 10:18:14;;;;;;;3.65;3.33;;;;;;;8.41;54.86;99929.53;5056431;28;20131;-65
2022/03/31 10:20:52;;;;;;;3.63;3.33;;;;;;;8.43;55.03;99935.63;5040546;28;20098;-64
2022/03/31 10:26:04;;;;;;;4.40;4.00;;;;;;;8.52;55.04;99926.88;5057367;28;20047;-63
2022/03/31 10:28:30;;;;;;;3.80;3.40;;;;;;;8.58;55.20;99929.09;5074677;28;20072;-63
2022/03/31 10:31:03;;;;;;;3.47;3.15;;;;;;;8.64;55.22;99930.44;5074816;28;20433;-63
2022/03/31 10:33:42;;;;;;;3.50;3.20;;;;;;;8.71;55.26;99926.31;5075176;28;20036;-63
2022/03/31 10:36:12;;;;;;;3.53;3.17;;;;;;;8.76;55.34;99929.47;5075062;28;20101;-63
2022/03/31 10:38:56;;;;;;;4.13;3.60;;;;;;;8.81;55.42;99929.97;5075087;28;20123;-63
2022/03/31 10:41:34;;;;;;;3.42;3.13;;;;;;;8.87;55.41;99929.47;5074778;28;20131;-63
2022/03/31 10:44:13;;;;;;;3.63;2.95;;;;;;;8.90;55.49;99918.53;5074563;28;20542;-63
2022/03/31 10:46:41;;;;;;;4.18;2.90;;;;;;;8.93;55.37;99920.16;5074403;28;20048;-63
2022/03/31 10:49:12;;;;;;;3.58;3.28;;;;;;;8.98;55.36;99917.97;5074498;28;20086;-63
2022/03/31 10:51:41;;;;;;;2.97;2.78;;;;;;;9.01;55.32;99913.22;5074513;28;20040;-64
2022/03/31 10:54:11;;;;;;;3.38;3.08;;;;;;;9.05;55.18;99905.78;5074393;28;20041;-63
2022/03/31 10:56:40;;;;;;;4.97;3.30;;;;;;;9.10;55.29;99914.31;5074731;28;20040;-63
2022/03/31 10:59:07;;;;;;;3.45;3.15;;;;;;;9.13;55.34;99908.69;5074508;28;20075;-63
2022/03/31 11:01:38;;;;;;;3.35;3.05;;;;;;;9.14;55.36;99916.63;5074571;28;20045;-63
2022/03/31 11:04:11;;;;;;;3.55;3.25;;;;;;;9.17;55.40;99915.53;5074239;28;20145;-63
2022/03/31 11:06:51;;;;;;;3.35;3.03;;;;;;;9.19;55.51;99911.75;5070324;28;20047;-63
2022/03/31 11:09:27;;;;;;;3.72;3.35;;;;;;;9.24;55.48;99914.91;5073756;28;20090;-63
2022/03/31 11:11:55;;;;;;;3.67;3.38;;;;;;;9.24;55.03;99912.22;5069957;28;20036;-63
2022/03/31 11:14:23;;;;;;;3.42;3.13;;;;;;;9.25;55.46;99910.41;5056676;28;20036;-63
2022/03/31 11:16:50;;;;;;;3.50;3.20;;;;;;;9.26;55.26;99916.59;5046871;28;20068;-63
2022/03/31 11:19:19;;;;;;;3.63;3.33;;;;;;;9.27;55.28;99916.47;5067864;28;20044;-63
2022/03/31 11:21:47;;;;;;;3.30;3.00;;;;;;;9.26;55.38;99911.25;5050327;28;20140;-63
2022/03/31 11:24:22;;;;;;;3.58;3.25;;;;;;;9.28;55.38;99920.00;5073547;28;20123;-64
2022/03/31 11:26:49;;;;;;;2.97;2.67;;;;;;;9.28;55.30;99911.97;5055448;28;20532;-64
2022/03/31 11:29:18;;;;;;;3.17;2.90;;;;;;;9.29;55.32;99909.16;5072094;28;20075;-63
2022/03/31 11:31:49;;;;;;;3.40;3.10;;;;;;;9.30;55.22;99910.88;5073614;28;20064;-63
2022/03/31 11:34:25;;;;;;;3.72;3.17;;;;;;;9.32;55.17;99900.88;5072806;28;20106;-63
2022/03/31 11:36:54;;;;;;;3.42;3.13;;;;;;;9.33;55.18;99899.06;5073179;28;20483;-63
2022/03/31 11:39:27;;;;;;;4.43;3.05;;;;;;;9.35;55.24;99905.16;5055433;28;21021;-64
2022/03/31 11:41:55;;;;;;;3.85;3.10;;;;;;;9.37;55.26;99901.38;5073051;28;20123;-64
2022/03/31 11:44:22;;;;;;;3.40;3.10;;;;;;;9.40;55.33;99895.75;5073477;28;20043;-64
2022/03/31 11:46:49;;;;;;;3.40;3.10;;;;;;;9.42;55.34;99893.81;5054812;28;20425;-63
2022/03/31 11:49:18;;;;;;;2.92;2.63;;;;;;;9.43;55.31;99895.50;5073043;28;20605;-63
2022/03/31 11:51:50;;;;;;;3.60;2.72;;;;;;;9.44;55.30;99894.53;5051950;28;20494;-65
2022/03/31 11:54:22;;;;;;;3.42;3.13;;;;;;;9.45;55.22;99896.22;5071012;28;20078;-66